Time;durP1;ratioP1;P1;durP2;ratioP2;P2;SDS_P1;SDS_P2;PMS_P1;PMS_P2;Temp;Humidity;BMP_temperature;BMP_pressure;BME280_temperature;BME280_humidity;BME280_pressure;Samples;Min_cycle;Max_cycle;Signal;HPM_P1;HPM_P2
2023/04/12 00:02:26;;;;;;;5.07;3.60;;;;;;;3.11;100.00;95986.84;5030724;28;103306;-65
2023/04/12 00:05:10;;;;;;;3.20;2.90;;;;;;;3.09;100.00;95978.34;5029030;28;105350;-64
2023/04/12 00:07:37;;;;;;;5.10;3.07;;;;;;;2.94;100.00;95967.34;5030629;27;101929;-64
2023/04/12 00:10:05;;;;;;;4.73;2.83;;;;;;;2.94;100.00;95964.72;5033491;28;102511;-64
2023/04/12 00:12:32;;;;;;;3.43;3.10;;;;;;;2.85;100.00;95955.50;5029227;28;101828;-64
2023/04/12 00:15:16;;;;;;;3.87;3.47;;;;;;;2.95;100.00;95950.59;5013862;28;105104;-64
2023/04/12 00:17:45;;;;;;;4.20;3.27;;;;;;;2.96;100.00;95945.09;5008645;28;103703;-65
2023/04/12 00:20:15;;;;;;;3.90;2.97;;;;;;;3.03;100.00;95947.69;5010366;28;101843;-65
2023/04/12 00:22:43;;;;;;;3.83;3.13;;;;;;;3.09;100.00;95941.56;5022414;28;102515;-64
2023/04/12 00:25:41;;;;;;;3.63;3.07;;;;;;;3.13;100.00;95934.88;5023460;27;102583;-65
2023/04/12 00:28:08;;;;;;;3.57;2.97;;;;;;;3.18;100.00;95933.19;5024318;28;101834;-64
2023/04/12 00:30:35;;;;;;;3.90;3.10;;;;;;;3.19;100.00;95926.94;5029039;28;105159;-65
2023/04/12 00:33:02;;;;;;;4.13;3.00;;;;;;;3.17;100.00;95923.72;5031799;28;105398;-64
2023/04/12 00:35:30;;;;;;;4.43;2.90;;;;;;;3.23;100.00;95911.56;5028993;28;105566;-64
2023/04/12 00:37:57;;;;;;;5.20;3.00;;;;;;;3.34;100.00;95913.47;5028950;27;105512;-64
2023/04/12 00:40:24;;;;;;;4.97;3.10;;;;;;;3.38;100.00;95915.44;5020499;27;101833;-64
2023/04/12 00:42:51;;;;;;;3.70;3.30;;;;;;;3.46;100.00;95909.09;5029886;28;104980;-64
2023/04/12 00:45:18;;;;;;;3.30;3.00;;;;;;;3.45;100.00;95907.50;5031935;28;105136;-64
2023/04/12 00:47:44;;;;;;;3.07;2.83;;;;;;;3.47;100.00;95906.25;5032639;28;101850;-65
2023/04/12 00:50:12;;;;;;;5.50;2.83;;;;;;;3.46;100.00;95911.72;5032486;28;104721;-64
2023/04/12 00:52:40;;;;;;;3.17;2.70;;;;;;;3.53;100.00;95907.19;5030003;28;105064;-64
2023/04/12 00:55:09;;;;;;;4.47;4.00;;;;;;;3.65;100.00;95902.84;5012842;28;104987;-64
2023/04/12 00:57:38;;;;;;;2.97;2.73;;;;;;;3.73;100.00;95907.78;5013518;27;103178;-64
2023/04/12 01:00:07;;;;;;;3.20;2.90;;;;;;;3.71;100.00;95904.59;5022655;28;101967;-64
2023/04/12 01:02:37;;;;;;;5.10;3.07;;;;;;;3.69;100.00;95893.47;5032428;28;104039;-64
2023/04/12 01:05:38;;;;;;;3.30;3.00;;;;;;;3.73;100.00;95897.28;5022690;28;103087;-64
2023/04/12 01:08:15;;;;;;;3.90;2.80;;;;;;;3.68;100.00;95891.88;5013921;28;101830;-64
2023/04/12 01:10:49;;;;;;;4.07;3.67;;;;;;;3.72;100.00;95885.94;5027586;28;105088;-64
2023/04/12 01:14:10;;;;;;;4.07;2.90;;;;;;;3.66;100.00;95892.09;5013353;27;102731;-65
2023/04/12 01:16:44;;;;;;;4.17;3.17;;;;;;;3.60;100.00;95877.19;5028510;28;102151;-64
2023/04/12 01:19:33;;;;;;;2.93;2.60;;;;;;;3.57;100.00;95882.91;5022321;28;105097;-64
2023/04/12 01:22:13;;;;;;;3.67;2.67;;;;;;;3.60;100.00;95887.72;5031421;28;103401;-64
2023/04/12 01:25:25;;;;;;;2.70;2.50;;;;;;;3.53;100.00;95880.91;5033158;27;102848;-64
2023/04/12 01:27:57;;;;;;;3.23;2.40;;;;;;;3.58;100.00;95873.19;5031308;28;102590;-64
2023/04/12 01:30:27;;;;;;;2.83;2.60;;;;;;;3.66;100.00;95870.28;5017825;27;103245;-64
2023/04/12 01:32:56;;;;;;;3.60;2.47;;;;;;;3.68;100.00;95870.84;5013714;28;104150;-64
2023/04/12 01:35:28;;;;;;;4.53;3.23;;;;;;;3.63;100.00;95870.69;5029158;28;105779;-64
2023/04/12 01:37:57;;;;;;;4.07;2.90;;;;;;;3.59;100.00;95866.88;5031685;28;101794;-64
2023/04/12 01:40:26;;;;;;;3.43;3.10;;;;;;;3.59;100.00;95864.25;5034830;28;104793;-64
2023/04/12 01:43:04;;;;;;;3.63;2.97;;;;;;;3.49;100.00;95858.75;5031480;28;101946;-64
2023/04/12 01:45:31;;;;;;;3.07;2.67;;;;;;;3.53;100.00;95849.38;5015050;28;105119;-64
2023/04/12 01:47:58;;;;;;;3.73;2.93;;;;;;;3.55;100.00;95849.97;5012084;28;103900;-64
2023/04/12 01:50:33;;;;;;;3.30;3.00;;;;;;;3.58;100.00;95849.53;5028637;27;102450;-64
2023/04/12 01:53:13;;;;;;;5.40;3.10;;;;;;;3.52;100.00;95838.06;5031586;28;105559;-64
2023/04/12 01:55:45;;;;;;;3.10;2.80;;;;;;;3.51;100.00;95831.22;5030934;28;103928;-64
2023/04/12 01:58:17;;;;;;;4.17;3.43;;;;;;;3.55;100.00;95835.00;5031599;28;102055;-64
2023/04/12 02:00:45;;;;;;;3.43;3.10;;;;;;;3.57;100.00;95832.16;5017006;28;104835;-64
2023/04/12 02:03:21;;;;;;;3.90;3.10;;;;;;;3.52;100.00;95829.38;5014287;28;105014;-64
2023/04/12 02:05:51;;;;;;;3.73;3.30;;;;;;;3.59;100.00;95835.34;5011421;28;104956;-65
2023/04/12 02:08:21;;;;;;;3.67;3.30;;;;;;;3.61;100.00;95836.72;5010785;28;105105;-64
2023/04/12 02:10:48;;;;;;;3.13;2.77;;;;;;;3.57;100.00;95835.59;5011216;28;102396;-64
2023/04/12 02:13:36;;;;;;;3.83;3.07;;;;;;;3.58;100.00;95831.13;5011310;28;104925;-65
2023/04/12 02:16:06;;;;;;;3.97;2.87;;;;;;;3.62;100.00;95829.66;5015598;28;102836;-64
2023/04/12 02:18:34;;;;;;;4.10;3.40;;;;;;;3.61;100.00;95835.94;5011126;28;101880;-64
2023/04/12 02:21:01;;;;;;;6.40;3.17;;;;;;;3.45;100.00;95837.31;5010701;28;105036;-64
2023/04/12 02:23:35;;;;;;;4.90;2.97;;;;;;;3.48;100.00;95818.50;5029886;28;105499;-65
2023/04/12 02:26:02;;;;;;;4.60;3.00;;;;;;;3.60;100.00;95829.09;5065409;27;101984;-64
2023/04/12 02:28:29;;;;;;;5.60;3.20;;;;;;;3.64;100.00;95830.22;5010550;28;105732;-64
2023/04/12 02:30:58;;;;;;;4.30;3.40;;;;;;;3.66;100.00;95815.06;5012926;28;102111;-65
2023/04/12 02:33:45;;;;;;;4.93;3.03;;;;;;;3.72;100.00;95816.81;5030266;28;105005;-65
2023/04/12 02:36:12;;;;;;;3.53;2.80;;;;;;;3.67;100.00;95812.19;5023910;28;105778;-64
2023/04/12 02:38:40;;;;;;;5.13;3.40;;;;;;;3.68;100.00;95813.00;4996030;28;102042;-64
2023/04/12 02:41:08;;;;;;;4.30;3.07;;;;;;;3.72;100.00;95803.66;5031109;28;105121;-64
2023/04/12 02:43:38;;;;;;;4.07;2.90;;;;;;;3.70;100.00;95810.94;5029788;28;105293;-64
2023/04/12 02:46:12;;;;;;;5.57;3.03;;;;;;;3.75;100.00;95811.09;5031056;28;101737;-64
2023/04/12 02:48:46;;;;;;;3.63;3.00;;;;;;;3.77;100.00;95807.22;5028904;28;103750;-64
2023/04/12 02:51:14;;;;;;;4.57;3.00;;;;;;;3.84;100.00;95809.75;5010907;28;101828;-64
2023/04/12 02:53:47;;;;;;;3.40;3.10;;;;;;;3.86;100.00;95807.69;5016559;28;105286;-64
2023/04/12 02:56:18;;;;;;;3.20;2.77;;;;;;;3.94;100.00;95808.19;5030298;28;105477;-64
2023/04/12 02:58:49;;;;;;;3.03;2.73;;;;;;;3.87;100.00;95798.81;5021950;28;101831;-64
2023/04/12 03:01:37;;;;;;;3.73;3.00;;;;;;;3.86;100.00;95807.69;5011374;28;103665;-65
2023/04/12 03:04:28;;;;;;;2.80;2.60;;;;;;;3.87;100.00;95802.22;5009890;28;105087;-64
2023/04/12 03:06:56;;;;;;;3.33;2.67;;;;;;;3.87;100.00;95799.59;5007444;28;101923;-64
2023/04/12 03:09:37;;;;;;;6.10;3.00;;;;;;;3.82;100.00;95807.34;5027049;28;105415;-64
2023/04/12 03:12:05;;;;;;;3.00;2.67;;;;;;;3.80;100.00;95805.97;5030464;28;102023;-64
2023/04/12 03:14:52;;;;;;;2.80;2.60;;;;;;;3.80;100.00;95806.78;5028406;28;104862;-64
2023/04/12 03:17:25;;;;;;;4.40;3.10;;;;;;;3.82;100.00;95801.31;5029937;28;105600;-64
2023/04/12 03:19:53;;;;;;;3.20;2.90;;;;;;;3.76;100.00;95805.59;5014529;28;101828;-64
2023/04/12 03:22:21;;;;;;;3.23;2.77;;;;;;;3.80;100.00;95811.22;5009898;28;104409;-64
2023/04/12 03:25:24;;;;;;;3.13;2.83;;;;;;;3.89;100.00;95812.53;5010526;28;105005;-64
2023/04/12 03:27:57;;;;;;;4.13;3.37;;;;;;;4.00;100.00;95814.41;5011922;28;102072;-64
2023/04/12 03:30:33;;;;;;;3.83;3.00;;;;;;;4.07;100.00;95815.09;5030108;28;103778;-64
2023/04/12 03:33:55;;;;;;;3.53;2.80;;;;;;;4.11;100.00;95821.53;5031213;28;105342;-64
2023/04/12 03:36:28;;;;;;;3.60;2.60;;;;;;;4.11;100.00;95818.91;5012328;28;105448;-64
2023/04/12 03:39:02;;;;;;;3.43;2.80;;;;;;;4.29;100.00;95826.72;5010636;28;105484;-64
2023/04/12 03:41:32;;;;;;;4.67;2.70;;;;;;;4.27;100.00;95820.91;5009786;28;102036;-63
2023/04/12 03:44:24;;;;;;;4.23;2.23;;;;;;;4.32;100.00;95818.41;5009806;28;105094;-64
2023/04/12 03:46:53;;;;;;;3.47;2.40;;;;;;;4.41;100.00;95817.03;5018797;28;105091;-65
2023/04/12 03:49:21;;;;;;;2.63;2.43;;;;;;;4.35;100.00;95810.03;5011098;28;102077;-65
2023/04/12 03:51:51;;;;;;;3.97;2.20;;;;;;;4.40;100.00;95804.91;5009783;28;105431;-64
2023/04/12 03:54:19;;;;;;;2.60;2.40;;;;;;;4.40;100.00;95805.72;5008856;28;105707;-64
2023/04/12 03:57:08;;;;;;;2.80;2.10;;;;;;;4.44;100.00;95803.41;5013320;28;101761;-64
2023/04/12 03:59:42;;;;;;;2.73;2.27;;;;;;;4.54;100.00;95801.03;5025651;28;105594;-64
2023/04/12 04:02:10;;;;;;;3.50;2.00;;;;;;;4.55;100.00;95800.00;5010584;28;102079;-64
2023/04/12 04:05:14;;;;;;;2.30;1.90;;;;;;;4.53;100.00;95799.44;5009414;28;105079;-64
2023/04/12 04:07:46;;;;;;;3.07;1.93;;;;;;;4.57;100.00;95795.31;5018720;28;105535;-64
2023/04/12 04:10:15;;;;;;;3.77;2.00;;;;;;;4.60;100.00;95797.50;5029733;28;101939;-64
2023/04/12 04:12:43;;;;;;;4.47;2.20;;;;;;;4.66;100.00;95799.22;5027150;28;105033;-64
2023/04/12 04:15:15;;;;;;;3.23;2.23;;;;;;;4.68;100.00;95797.16;5028767;28;104348;-64
2023/04/12 04:17:43;;;;;;;3.37;2.23;;;;;;;4.75;100.00;95797.84;5018624;28;101996;-64
2023/04/12 04:20:12;;;;;;;3.10;2.03;;;;;;;4.80;100.00;95795.34;5013539;28;104589;-64
2023/04/12 04:22:41;;;;;;;2.07;1.90;;;;;;;4.83;100.00;95794.88;5029369;28;101832;-64
2023/04/12 04:28:33;;;;;;;3.27;2.10;;;;;;;5.00;100.00;95785.25;5008419;28;104949;-64
2023/04/12 04:31:05;;;;;;;3.60;2.10;;;;;;;4.97;100.00;95783.09;5009949;28;102161;-64
2023/04/12 04:33:49;;;;;;;2.27;1.87;;;;;;;5.01;100.00;95787.66;5009202;28;105109;-64
2023/04/12 04:36:18;;;;;;;3.60;2.33;;;;;;;5.07;100.00;95783.31;5018417;28;104143;-64
2023/04/12 04:38:50;;;;;;;3.20;2.10;;;;;;;5.08;100.00;95779.63;5010274;28;102284;-64
2023/04/12 04:41:33;;;;;;;3.80;2.83;;;;;;;5.07;100.00;95780.69;5021034;28;103687;-64
2023/04/12 04:47:24;;;;;;;2.73;2.37;;;;;;;5.00;100.00;95774.69;5009065;28;105507;-64
2023/04/12 04:49:51;;;;;;;4.20;3.00;;;;;;;4.95;100.00;95778.03;5008394;28;103978;-64
2023/04/12 04:52:24;;;;;;;3.13;2.57;;;;;;;5.03;100.00;95769.00;5008862;28;101933;-64
2023/04/12 04:55:01;;;;;;;4.40;2.57;;;;;;;5.07;100.00;95755.09;5008786;28;103573;-64
2023/04/12 04:57:33;;;;;;;2.30;2.10;;;;;;;5.05;100.00;95759.81;5008200;28;105208;-64
2023/04/12 05:00:01;;;;;;;2.50;2.30;;;;;;;5.14;100.00;95753.13;5023196;28;101956;-64
2023/04/12 05:02:30;;;;;;;3.47;2.47;;;;;;;5.19;100.00;95750.63;5012428;28;105118;-64
2023/04/12 05:04:59;;;;;;;2.53;2.30;;;;;;;5.20;100.00;95754.06;5013096;28;104657;-64
2023/04/12 05:07:27;;;;;;;3.57;2.40;;;;;;;5.27;100.00;95754.72;5031803;28;102062;-64
2023/04/12 05:09:54;;;;;;;4.83;2.47;;;;;;;5.30;100.00;95754.28;5027668;28;105225;-64
2023/04/12 05:12:21;;;;;;;3.10;2.90;;;;;;;5.38;100.00;95757.34;5028678;28;101906;-64
2023/04/12 05:14:52;;;;;;;3.10;2.80;;;;;;;5.30;100.00;95754.28;5028581;28;104751;-65
2023/04/12 05:17:20;;;;;;;3.47;3.00;;;;;;;5.26;100.00;95758.41;5018163;28;104393;-64
2023/04/12 05:19:48;;;;;;;4.37;3.07;;;;;;;5.29;100.00;95755.31;5021533;28;102093;-64
2023/04/12 05:22:19;;;;;;;4.97;3.33;;;;;;;5.28;100.00;95751.88;5028281;28;105518;-65
2023/04/12 05:25:01;;;;;;;4.33;3.23;;;;;;;5.34;100.00;95752.78;5028021;27;105577;-64
2023/04/12 05:27:31;;;;;;;4.37;2.93;;;;;;;5.31;100.00;95746.16;5035344;28;102115;-65
2023/04/12 05:30:00;;;;;;;3.90;2.80;;;;;;;5.25;100.00;95746.25;5031237;28;105615;-63
2023/04/12 05:32:27;;;;;;;4.13;3.73;;;;;;;5.25;100.00;95741.00;5021832;28;101831;-63
2023/04/12 05:35:40;;;;;;;3.77;2.97;;;;;;;5.28;100.00;95732.59;5011893;28;105003;-63
2023/04/12 05:38:09;;;;;;;3.60;3.10;;;;;;;5.29;100.00;95734.22;5012319;28;105379;-63
2023/04/12 05:40:36;;;;;;;3.13;2.80;;;;;;;5.35;100.00;95731.44;5011824;28;101996;-63
2023/04/12 05:43:11;;;;;;;4.00;3.17;;;;;;;5.45;100.00;95717.69;5011444;28;105647;-63
2023/04/12 05:45:38;;;;;;;3.87;3.13;;;;;;;5.48;100.00;95711.91;5011180;28;105156;-63
2023/04/12 05:48:06;;;;;;;2.97;2.77;;;;;;;5.62;100.00;95715.91;5027019;28;101952;-63
2023/04/12 05:50:34;;;;;;;5.23;2.90;;;;;;;5.69;100.00;95706.81;5030445;28;104804;-63
2023/04/12 05:53:12;;;;;;;3.67;3.20;;;;;;;5.70;100.00;95697.03;5011259;28;101767;-63
2023/04/12 05:55:39;;;;;;;3.67;2.70;;;;;;;5.75;100.00;95697.13;5020394;28;105166;-63
2023/04/12 05:58:06;;;;;;;5.30;3.37;;;;;;;5.88;100.00;95689.75;5020379;28;103962;-63
2023/04/12 06:00:34;;;;;;;6.20;3.10;;;;;;;5.84;100.00;95690.47;5011420;28;101922;-63
2023/04/12 06:03:40;;;;;;;5.33;2.90;;;;;;;5.79;100.00;95682.44;5019038;28;105350;-63
2023/04/12 06:06:09;;;;;;;4.00;2.90;;;;;;;5.82;100.00;95689.88;5030703;28;105153;-64
2023/04/12 06:08:38;;;;;;;4.63;3.03;;;;;;;5.77;100.00;95680.03;5030955;28;102002;-63
2023/04/12 06:11:07;;;;;;;3.60;3.30;;;;;;;5.87;100.00;95671.50;5031367;28;105615;-63
2023/04/12 06:14:00;;;;;;;3.80;3.50;;;;;;;5.97;100.00;95666.41;5015138;28;105171;-64
2023/04/12 06:16:27;;;;;;;5.27;3.70;;;;;;;6.17;100.00;95669.38;5016909;28;104163;-63
2023/04/12 06:18:54;;;;;;;4.13;3.73;;;;;;;6.12;100.00;95669.31;5016783;28;105041;-63
2023/04/12 06:21:22;;;;;;;3.73;3.27;;;;;;;6.12;100.00;95661.38;5011692;28;101973;-64
2023/04/12 06:23:53;;;;;;;4.50;3.20;;;;;;;6.19;100.00;95662.03;5022552;28;104495;-64
2023/04/12 06:26:20;;;;;;;4.63;3.60;;;;;;;6.28;100.00;95652.66;5010150;28;105442;-64
2023/04/12 06:28:48;;;;;;;5.10;4.00;;;;;;;6.45;100.00;95654.25;5020320;28;101995;-64
2023/04/12 06:31:16;;;;;;;5.83;3.10;;;;;;;6.39;100.00;95647.28;5010498;28;105191;-64
2023/04/12 06:33:46;;;;;;;3.00;2.70;;;;;;;6.45;100.00;95642.88;5009920;28;105597;-64
2023/04/12 06:36:14;;;;;;;3.40;3.10;;;;;;;6.50;100.00;95651.66;5013808;28;101946;-64
2023/04/12 06:38:43;;;;;;;2.70;2.50;;;;;;;6.55;100.00;95648.31;5010928;28;102134;-64
2023/04/12 06:41:12;;;;;;;4.13;2.80;;;;;;;6.53;100.00;95637.16;5009310;28;102130;-64
2023/04/12 06:43:42;;;;;;;4.13;2.60;;;;;;;6.60;100.00;95635.97;5022575;28;105202;-64
2023/04/12 06:46:09;;;;;;;2.80;2.60;;;;;;;6.65;100.00;95635.25;5028435;28;105391;-64
2023/04/12 06:48:37;;;;;;;2.70;2.37;;;;;;;6.64;100.00;95634.44;5027406;28;102017;-64
2023/04/12 06:51:04;;;;;;;3.07;2.50;;;;;;;6.76;100.00;95629.06;5011498;28;103835;-64
2023/04/12 06:53:47;;;;;;;3.30;2.67;;;;;;;6.75;100.00;95628.25;5009569;28;104390;-64
2023/04/12 06:56:15;;;;;;;3.47;2.57;;;;;;;6.88;100.00;95619.94;5011423;28;101753;-64
2023/04/12 06:58:43;;;;;;;4.03;2.70;;;;;;;7.07;100.00;95609.84;5013258;28;103663;-64
2023/04/12 07:01:12;;;;;;;2.40;2.07;;;;;;;7.24;100.00;95605.28;5011280;28;101886;-64
2023/04/12 07:03:52;;;;;;;2.77;2.17;;;;;;;7.29;100.00;95608.00;5010051;28;103646;-65
2023/04/12 07:06:19;;;;;;;3.90;2.80;;;;;;;7.50;100.00;95601.88;5010494;28;105317;-64
2023/04/12 07:08:47;;;;;;;6.20;4.00;;;;;;;7.68;100.00;95596.22;5022448;28;101996;-64
2023/04/12 07:11:16;;;;;;;2.50;2.30;;;;;;;7.71;100.00;95590.41;5028141;28;104982;-64
2023/04/12 07:13:43;;;;;;;3.20;2.60;;;;;;;7.83;100.00;95594.50;5023415;28;104882;-65
2023/04/12 07:16:10;;;;;;;3.87;2.73;;;;;;;7.97;100.00;95595.66;5010566;28;101780;-64
2023/04/12 07:18:39;;;;;;;3.73;2.70;;;;;;;7.96;100.00;95590.66;5013915;28;104839;-64
2023/04/12 07:21:07;;;;;;;3.50;2.60;;;;;;;7.97;100.00;95584.28;5012405;28;101928;-64
2023/04/12 07:24:01;;;;;;;4.10;2.70;;;;;;;8.17;100.00;95579.13;5031153;28;102816;-64
2023/04/12 07:26:30;;;;;;;3.53;2.47;;;;;;;8.22;100.00;95573.91;5016036;28;103894;-64
2023/04/12 07:28:57;;;;;;;3.50;2.70;;;;;;;8.25;100.00;95571.56;5009851;28;102025;-64
2023/04/12 07:31:23;;;;;;;3.47;2.43;;;;;;;8.23;100.00;95575.50;5009770;28;105154;-64
2023/04/12 07:33:57;;;;;;;3.53;2.73;;;;;;;8.24;100.00;95572.59;5009441;28;105325;-64
2023/04/12 07:36:25;;;;;;;3.67;2.40;;;;;;;8.11;100.00;95564.25;5010144;28;101907;-64
2023/04/12 07:38:54;;;;;;;4.33;2.60;;;;;;;8.16;100.00;95566.94;5009892;28;105399;-64
2023/04/12 07:41:21;;;;;;;2.47;2.10;;;;;;;8.20;100.00;95565.41;5031267;28;102986;-64
2023/04/12 07:43:51;;;;;;;3.90;2.60;;;;;;;8.39;100.00;95563.97;5029930;28;104929;-65
2023/04/12 07:46:18;;;;;;;2.63;2.43;;;;;;;8.48;100.00;95563.22;5027723;28;105158;-64
2023/04/12 07:48:45;;;;;;;3.90;2.20;;;;;;;8.33;100.00;95560.47;5016156;28;101868;-64
2023/04/12 07:51:12;;;;;;;2.47;2.27;;;;;;;8.39;100.00;95556.78;5009994;28;105643;-64
2023/04/12 07:53:40;;;;;;;2.73;2.10;;;;;;;8.46;100.00;95569.81;5008739;28;104037;-64
2023/04/12 07:56:08;;;;;;;3.27;2.13;;;;;;;8.31;100.00;95556.47;5009864;28;101943;-66
2023/04/12 07:58:35;;;;;;;4.20;2.10;;;;;;;8.41;100.00;95557.31;5009730;28;104853;-66
2023/04/12 08:01:03;;;;;;;4.03;2.20;;;;;;;8.65;100.00;95549.75;5010138;28;105383;-66
2023/04/12 08:03:41;;;;;;;4.20;2.23;;;;;;;8.53;100.00;95551.84;5012961;28;101987;-66
2023/04/12 08:06:08;;;;;;;2.93;2.27;;;;;;;8.55;100.00;95553.19;5008785;28;105367;-66
2023/04/12 08:08:35;;;;;;;3.57;1.90;;;;;;;8.68;100.00;95538.66;5009655;28;101726;-66
2023/04/12 08:11:05;;;;;;;2.20;1.97;;;;;;;8.63;100.00;95546.59;5010563;28;103749;-66
2023/04/12 08:13:45;;;;;;;3.20;2.03;;;;;;;8.91;100.00;95546.97;5008781;28;104361;-66
2023/04/12 08:16:13;;;;;;;2.43;2.00;;;;;;;9.16;100.00;95543.59;5010706;28;102036;-66
2023/04/12 08:18:40;;;;;;;3.10;2.20;;;;;;;9.35;100.00;95534.09;5018509;28;103855;-66
2023/04/12 08:21:07;;;;;;;6.30;4.70;;;;;;;9.65;100.00;95529.59;5025429;28;105355;-66
2023/04/12 08:24:12;;;;;;;3.30;2.20;;;;;;;9.74;100.00;95522.72;5009205;28;101961;-66
2023/04/12 08:26:39;;;;;;;6.93;5.07;;;;;;;9.66;100.00;95527.75;5012037;28;105353;-66
2023/04/12 08:29:06;;;;;;;4.43;2.33;;;;;;;9.68;100.00;95529.09;5009306;28;102100;-66
2023/04/12 08:31:35;;;;;;;3.93;1.93;;;;;;;9.40;100.00;95521.63;5010136;28;105306;-66
2023/04/12 08:34:10;;;;;;;2.97;2.10;;;;;;;9.63;100.00;95520.31;5008597;28;105445;-66
2023/04/12 08:36:36;;;;;;;2.17;1.97;;;;;;;9.69;100.00;95517.41;5009167;28;101934;-66
2023/04/12 08:39:03;;;;;;;3.20;2.27;;;;;;;9.73;100.00;95509.69;5009358;28;104799;-66
2023/04/12 08:41:30;;;;;;;3.37;1.73;;;;;;;9.86;100.00;95520.56;5008480;28;105772;-66
2023/04/12 08:43:59;;;;;;;3.53;2.03;;;;;;;10.06;100.00;95522.44;5009062;28;101993;-66
2023/04/12 08:46:27;;;;;;;4.13;2.00;;;;;;;10.15;100.00;95524.28;5010108;28;105334;-66
2023/04/12 08:48:57;;;;;;;6.00;2.20;;;;;;;10.27;100.00;95524.00;5012122;28;105418;-66
2023/04/12 08:51:24;;;;;;;3.50;2.23;;;;;;;10.10;100.00;95510.22;5022728;28;105448;-66
2023/04/12 08:53:52;;;;;;;3.17;2.40;;;;;;;10.34;100.00;95505.91;5027797;28;105403;-66
2023/04/12 08:56:22;;;;;;;2.37;2.17;;;;;;;10.41;100.00;95506.44;5029161;28;101878;-66
2023/04/12 08:58:51;;;;;;;3.03;2.60;;;;;;;10.43;100.00;95506.97;5028818;27;102575;-66
2023/04/12 09:01:19;;;;;;;2.63;2.00;;;;;;;10.42;100.00;95508.03;5030739;28;101962;-66
2023/04/12 09:04:09;;;;;;;2.17;2.00;;;;;;;10.44;100.00;95498.72;5063441;27;102039;-66
2023/04/12 09:06:36;;;;;;;2.97;2.10;;;;;;;10.49;100.00;95497.91;5028622;28;104770;-66
2023/04/12 09:09:05;;;;;;;2.60;1.90;;;;;;;10.31;100.00;95490.53;5011734;28;105420;-66
2023/04/12 09:11:32;;;;;;;2.87;1.80;;;;;;;10.49;100.00;95489.94;5019838;28;101856;-66
2023/04/12 09:14:04;;;;;;;2.37;2.10;;;;;;;10.67;100.00;95486.66;5031776;28;105600;-66
2023/04/12 09:16:36;;;;;;;2.13;1.80;;;;;;;10.68;100.00;95483.75;5029136;28;102083;-66
2023/04/12 09:19:03;;;;;;;2.27;1.63;;;;;;;10.54;100.00;95487.25;5013453;28;102623;-66
2023/04/12 09:21:33;;;;;;;2.30;1.40;;;;;;;10.61;100.00;95485.09;5024321;28;105304;-66
2023/04/12 09:24:08;;;;;;;3.13;1.90;;;;;;;10.64;100.00;95484.56;5032112;28;101843;-66
2023/04/12 09:26:35;;;;;;;1.93;1.73;;;;;;;10.51;100.00;95490.44;5031180;28;105548;-66
2023/04/12 09:29:02;;;;;;;2.30;1.80;;;;;;;10.50;100.00;95484.34;5031499;28;105142;-66
2023/04/12 09:31:28;;;;;;;1.50;1.40;;;;;;;10.47;100.00;95468.16;5021837;28;102040;-66
2023/04/12 09:34:07;;;;;;;2.23;2.03;;;;;;;10.19;100.00;95458.94;5011228;28;105481;-66
2023/04/12 09:36:39;;;;;;;3.07;1.70;;;;;;;10.03;100.00;95435.31;5014367;28;101812;-66
2023/04/12 09:39:07;;;;;;;2.13;1.93;;;;;;;10.55;100.00;95411.75;5025462;28;105310;-65
2023/04/12 09:41:35;;;;;;;2.23;1.60;;;;;;;10.46;100.00;95421.41;5012085;28;105849;-66
2023/04/12 09:44:02;;;;;;;1.73;1.60;;;;;;;10.59;100.00;95421.59;5032408;27;101958;-66
2023/04/12 09:46:29;;;;;;;1.23;1.20;;;;;;;10.58;100.00;95395.28;5024931;28;103907;-66
2023/04/12 09:48:58;;;;;;;2.97;1.10;;;;;;;10.50;100.00;95390.53;4997702;28;105551;-66
2023/04/12 09:51:28;;;;;;;1.90;1.20;;;;;;;10.54;100.00;95399.53;5011385;28;102137;-66
2023/04/12 09:54:27;;;;;;;1.93;1.20;;;;;;;10.66;100.00;95397.34;5014318;28;104793;-66
2023/04/12 09:56:55;;;;;;;2.50;1.20;;;;;;;10.80;100.00;95404.44;5011606;28;101970;-66
2023/04/12 09:59:27;;;;;;;3.07;1.30;;;;;;;10.98;100.00;95392.38;5012979;28;102893;-66
2023/04/12 10:01:54;;;;;;;1.13;1.03;;;;;;;11.40;100.00;95371.28;5010840;28;106256;-66
2023/04/12 10:04:25;;;;;;;1.00;1.00;;;;;;;11.64;100.00;95354.31;5012971;28;101830;-66
2023/04/12 10:06:52;;;;;;;1.30;0.80;;;;;;;11.65;100.00;95363.88;5011488;28;105525;-66
2023/04/12 10:09:19;;;;;;;1.23;0.80;;;;;;;11.81;100.00;95356.53;5010835;28;105153;-66
2023/04/12 10:11:51;;;;;;;1.17;1.07;;;;;;;11.89;100.00;95338.06;5010520;28;101872;-66
2023/04/12 10:14:26;;;;;;;1.23;0.90;;;;;;;11.86;100.00;95340.50;5015212;28;103612;-66
2023/04/12 10:16:56;;;;;;;1.13;1.00;;;;;;;11.82;100.00;95326.94;5034200;28;105225;-66
2023/04/12 10:19:26;;;;;;;1.03;0.90;;;;;;;12.03;100.00;95322.19;5013184;28;105061;-66
2023/04/12 10:21:53;;;;;;;1.47;1.10;;;;;;;12.14;100.00;95313.78;5020991;28;105526;-66
2023/04/12 10:24:22;;;;;;;2.03;1.63;;;;;;;12.18;100.00;95330.00;5011129;28;101988;-66
2023/04/12 10:26:51;;;;;;;2.73;2.53;;;;;;;12.32;100.00;95320.22;5031225;28;104706;-66
2023/04/12 10:29:26;;;;;;;1.60;1.50;;;;;;;12.33;100.00;95305.81;5011771;28;105127;-66
2023/04/12 10:31:54;;;;;;;1.53;1.40;;;;;;;12.29;100.00;95312.78;5012137;28;101912;-66
2023/04/12 10:34:42;;;;;;;1.87;1.77;;;;;;;12.52;100.00;95319.94;5010988;28;105242;-66
2023/04/12 10:37:09;;;;;;;1.53;1.40;;;;;;;12.61;100.00;95312.88;5010631;28;106060;-66
2023/04/12 10:39:41;;;;;;;1.50;1.30;;;;;;;12.61;100.00;95302.22;5027126;28;102074;-66
2023/04/12 10:42:24;;;;;;;2.10;1.10;;;;;;;12.63;100.00;95308.03;5013510;27;102547;-66
2023/04/12 10:44:52;;;;;;;1.57;0.93;;;;;;;12.77;100.00;95299.06;5000719;28;101951;-66
2023/04/12 10:47:52;;;;;;;2.50;0.87;;;;;;;12.99;100.00;95299.28;5011076;28;101779;-66
2023/04/12 10:50:24;;;;;;;0.80;0.80;;;;;;;13.05;100.00;95278.63;4984696;28;105471;-66
2023/04/12 10:53:24;;;;;;;0.80;0.80;;;;;;;13.22;100.00;95276.19;4990277;28;101824;-66
2023/04/12 10:55:51;;;;;;;0.90;0.90;;;;;;;13.27;100.00;95265.41;4990355;28;103926;-66
2023/04/12 10:58:58;;;;;;;1.67;0.90;;;;;;;13.30;100.00;95270.19;4989681;28;106471;-66
2023/04/12 11:01:29;;;;;;;1.10;1.00;;;;;;;13.40;100.00;95257.44;5002094;28;101966;-66
2023/04/12 11:04:21;;;;;;;1.23;0.80;;;;;;;13.45;100.00;95243.19;5013009;28;104507;-66
2023/04/12 11:07:03;;;;;;;2.37;1.80;;;;;;;13.53;100.00;95243.28;5000788;28;102051;-66
2023/04/12 11:09:42;;;;;;;1.73;1.63;;;;;;;14.10;100.00;95233.88;5010027;28;105362;-66
2023/04/12 11:12:13;;;;;;;2.37;1.50;;;;;;;14.54;100.00;95236.66;5009622;28;105155;-66
2023/04/12 11:15:00;;;;;;;1.43;1.10;;;;;;;14.69;100.00;95221.06;5011363;28;101984;-66
2023/04/12 11:17:30;;;;;;;1.23;1.13;;;;;;;14.81;100.00;95212.47;5009809;28;103889;-66
2023/04/12 11:20:00;;;;;;;0.90;0.90;;;;;;;15.22;100.00;95218.41;5010438;28;102531;-66
2023/04/12 11:22:29;;;;;;;1.13;1.03;;;;;;;15.32;100.00;95212.78;5009310;28;102030;-66
2023/04/12 11:24:58;;;;;;;1.13;1.10;;;;;;;15.20;100.00;95204.53;5011274;28;102309;-66
2023/04/12 11:27:26;;;;;;;1.20;1.10;;;;;;;15.54;100.00;95208.16;5012580;28;105529;-66
2023/04/12 11:29:55;;;;;;;1.20;1.10;;;;;;;15.48;100.00;95205.94;5010759;28;102496;-66
2023/04/12 11:32:26;;;;;;;1.27;1.07;;;;;;;15.17;100.00;95195.22;5008918;28;105749;-66
2023/04/12 11:34:54;;;;;;;1.10;1.00;;;;;;;15.08;100.00;95196.25;5009854;28;101811;-66
2023/04/12 11:37:22;;;;;;;1.60;0.90;;;;;;;15.06;100.00;95190.44;5011105;28;102544;-66
2023/04/12 11:39:52;;;;;;;1.27;1.20;;;;;;;15.46;100.00;95192.84;5010306;28;102761;-66
2023/04/12 11:42:20;;;;;;;1.53;0.93;;;;;;;15.13;100.00;95201.47;5010885;28;101721;-66
2023/04/12 11:44:48;;;;;;;1.87;0.80;;;;;;;15.23;100.00;95182.47;5010906;28;102502;-66
2023/04/12 11:47:17;;;;;;;0.80;0.80;;;;;;;15.08;100.00;95182.88;5013874;28;103110;-66
2023/04/12 11:49:47;;;;;;;1.57;1.10;;;;;;;15.32;100.00;95188.69;5009393;28;106212;-66
2023/04/12 11:52:15;;;;;;;1.33;0.90;;;;;;;14.53;100.00;95179.69;5008630;28;105785;-66
2023/04/12 11:54:44;;;;;;;1.10;1.10;;;;;;;14.46;100.00;95174.00;5010624;28;101872;-66